sensor_id;sensor_type;location;lat;lon;timestamp;P1;durP1;ratioP1;P2;durP2;ratioP2
787;SDS011;16074;42.708;23.312;2023-06-24T00:01:48;16.33;;;14.97;;
787;SDS011;16074;42.708;23.312;2023-06-24T00:04:17;17.20;;;15.47;;
787;SDS011;16074;42.708;23.312;2023-06-24T00:06:46;15.00;;;13.60;;
787;SDS011;16074;42.708;23.312;2023-06-24T00:09:14;16.33;;;15.03;;
787;SDS011;16074;42.708;23.312;2023-06-24T00:11:43;15.83;;;14.43;;
787;SDS011;16074;42.708;23.312;2023-06-24T00:14:11;16.67;;;15.23;;
787;SDS011;16074;42.708;23.312;2023-06-24T00:16:41;15.57;;;14.30;;
787;SDS011;16074;42.708;23.312;2023-06-24T00:19:10;16.50;;;14.80;;
787;SDS011;16074;42.708;23.312;2023-06-24T00:21:38;16.60;;;15.13;;
787;SDS011;16074;42.708;23.312;2023-06-24T00:24:06;17.67;;;16.20;;
787;SDS011;16074;42.708;23.312;2023-06-24T00:26:36;16.70;;;15.20;;
787;SDS011;16074;42.708;23.312;2023-06-24T00:29:05;16.80;;;15.30;;
787;SDS011;16074;42.708;23.312;2023-06-24T00:31:33;17.73;;;16.10;;
787;SDS011;16074;42.708;23.312;2023-06-24T00:34:01;16.27;;;14.67;;
787;SDS011;16074;42.708;23.312;2023-06-24T00:36:29;15.83;;;14.50;;
787;SDS011;16074;42.708;23.312;2023-06-24T00:38:58;15.83;;;14.40;;
787;SDS011;16074;42.708;23.312;2023-06-24T00:41:30;15.60;;;14.30;;
787;SDS011;16074;42.708;23.312;2023-06-24T00:43:58;16.47;;;14.97;;
787;SDS011;16074;42.708;23.312;2023-06-24T00:46:28;15.43;;;14.20;;
787;SDS011;16074;42.708;23.312;2023-06-24T00:48:58;16.37;;;14.87;;
787;SDS011;16074;42.708;23.312;2023-06-24T00:51:28;15.40;;;14.10;;
787;SDS011;16074;42.708;23.312;2023-06-24T00:53:58;16.27;;;14.87;;
787;SDS011;16074;42.708;23.312;2023-06-24T00:56:27;16.17;;;14.90;;
787;SDS011;16074;42.708;23.312;2023-06-24T00:58:56;16.43;;;15.00;;
787;SDS011;16074;42.708;23.312;2023-06-24T01:01:24;16.30;;;14.80;;
787;SDS011;16074;42.708;23.312;2023-06-24T01:03:54;16.60;;;15.10;;
787;SDS011;16074;42.708;23.312;2023-06-24T01:06:24;16.57;;;15.17;;
787;SDS011;16074;42.708;23.312;2023-06-24T01:08:56;18.17;;;14.67;;
787;SDS011;16074;42.708;23.312;2023-06-24T01:11:24;15.93;;;14.40;;
787;SDS011;16074;42.708;23.312;2023-06-24T01:13:53;16.93;;;15.43;;
787;SDS011;16074;42.708;23.312;2023-06-24T01:16:23;15.80;;;14.40;;
787;SDS011;16074;42.708;23.312;2023-06-24T01:18:57;15.20;;;13.90;;
787;SDS011;16074;42.708;23.312;2023-06-24T01:21:31;15.70;;;14.40;;
787;SDS011;16074;42.708;23.312;2023-06-24T01:24:06;14.63;;;13.53;;
787;SDS011;16074;42.708;23.312;2023-06-24T01:29:31;15.80;;;14.50;;
787;SDS011;16074;42.708;23.312;2023-06-24T01:32:04;16.47;;;15.07;;
787;SDS011;16074;42.708;23.312;2023-06-24T01:34:35;17.60;;;15.90;;
787;SDS011;16074;42.708;23.312;2023-06-24T01:37:08;16.63;;;15.03;;
787;SDS011;16074;42.708;23.312;2023-06-24T01:39:37;16.30;;;14.90;;
787;SDS011;16074;42.708;23.312;2023-06-24T01:42:07;15.73;;;14.33;;
787;SDS011;16074;42.708;23.312;2023-06-24T01:44:36;16.20;;;14.90;;
787;SDS011;16074;42.708;23.312;2023-06-24T01:47:07;19.67;;;17.83;;
787;SDS011;16074;42.708;23.312;2023-06-24T01:49:37;18.23;;;16.67;;
787;SDS011;16074;42.708;23.312;2023-06-24T01:52:06;18.87;;;17.23;;
787;SDS011;16074;42.708;23.312;2023-06-24T01:54:35;18.70;;;17.00;;
787;SDS011;16074;42.708;23.312;2023-06-24T01:57:04;19.83;;;18.03;;
787;SDS011;16074;42.708;23.312;2023-06-24T01:59:34;20.40;;;18.50;;
787;SDS011;16074;42.708;23.312;2023-06-24T02:02:03;19.90;;;18.03;;
787;SDS011;16074;42.708;23.312;2023-06-24T02:04:33;19.53;;;17.83;;
787;SDS011;16074;42.708;23.312;2023-06-24T02:07:02;21.43;;;19.20;;
787;SDS011;16074;42.708;23.312;2023-06-24T02:09:31;21.37;;;19.47;;
787;SDS011;16074;42.708;23.312;2023-06-24T02:12:00;21.50;;;19.30;;
787;SDS011;16074;42.708;23.312;2023-06-24T02:14:30;20.17;;;18.30;;
787;SDS011;16074;42.708;23.312;2023-06-24T02:17:00;20.57;;;18.70;;
787;SDS011;16074;42.708;23.312;2023-06-24T02:19:29;20.53;;;17.87;;
787;SDS011;16074;42.708;23.312;2023-06-24T02:21:59;20.37;;;18.37;;
787;SDS011;16074;42.708;23.312;2023-06-24T02:24:28;21.33;;;19.43;;
787;SDS011;16074;42.708;23.312;2023-06-24T02:26:57;21.40;;;19.20;;
787;SDS011;16074;42.708;23.312;2023-06-24T02:29:26;21.93;;;19.80;;
787;SDS011;16074;42.708;23.312;2023-06-24T02:31:55;23.17;;;20.97;;
787;SDS011;16074;42.708;23.312;2023-06-24T02:34:24;23.13;;;20.93;;
787;SDS011;16074;42.708;23.312;2023-06-24T02:36:52;22.80;;;20.60;;
787;SDS011;16074;42.708;23.312;2023-06-24T02:39:22;23.83;;;21.53;;
787;SDS011;16074;42.708;23.312;2023-06-24T02:41:50;21.87;;;19.97;;
787;SDS011;16074;42.708;23.312;2023-06-24T02:44:18;23.63;;;21.33;;
787;SDS011;16074;42.708;23.312;2023-06-24T02:46:46;24.07;;;21.20;;
787;SDS011;16074;42.708;23.312;2023-06-24T02:49:15;23.13;;;21.03;;
787;SDS011;16074;42.708;23.312;2023-06-24T02:51:45;23.43;;;21.30;;
787;SDS011;16074;42.708;23.312;2023-06-24T02:54:13;25.63;;;23.33;;
787;SDS011;16074;42.708;23.312;2023-06-24T02:57:06;23.47;;;21.30;;
787;SDS011;16074;42.708;23.312;2023-06-24T02:59:54;22.17;;;19.90;;
787;SDS011;16074;42.708;23.312;2023-06-24T03:02:28;24.50;;;22.20;;
787;SDS011;16074;42.708;23.312;2023-06-24T03:04:57;25.10;;;22.70;;
787;SDS011;16074;42.708;23.312;2023-06-24T03:07:29;23.67;;;21.47;;
787;SDS011;16074;42.708;23.312;2023-06-24T03:10:01;24.20;;;21.90;;
787;SDS011;16074;42.708;23.312;2023-06-24T03:12:31;23.13;;;20.93;;
787;SDS011;16074;42.708;23.312;2023-06-24T03:15:01;25.53;;;23.10;;
787;SDS011;16074;42.708;23.312;2023-06-24T03:17:29;24.70;;;22.13;;
787;SDS011;16074;42.708;23.312;2023-06-24T03:19:57;26.73;;;24.07;;
787;SDS011;16074;42.708;23.312;2023-06-24T03:22:25;24.87;;;22.23;;
787;SDS011;16074;42.708;23.312;2023-06-24T03:24:54;24.20;;;21.90;;
787;SDS011;16074;42.708;23.312;2023-06-24T03:27:23;25.47;;;22.97;;
787;SDS011;16074;42.708;23.312;2023-06-24T03:29:53;25.03;;;22.70;;
787;SDS011;16074;42.708;23.312;2023-06-24T03:32:21;22.73;;;20.73;;
787;SDS011;16074;42.708;23.312;2023-06-24T03:34:49;23.90;;;21.70;;
787;SDS011;16074;42.708;23.312;2023-06-24T03:37:18;24.47;;;22.07;;
787;SDS011;16074;42.708;23.312;2023-06-24T03:39:46;25.33;;;22.63;;
787;SDS011;16074;42.708;23.312;2023-06-24T03:42:14;24.40;;;22.07;;
787;SDS011;16074;42.708;23.312;2023-06-24T03:44:43;26.93;;;22.07;;
787;SDS011;16074;42.708;23.312;2023-06-24T03:47:13;23.23;;;21.17;;
787;SDS011;16074;42.708;23.312;2023-06-24T03:49:41;26.17;;;23.63;;
787;SDS011;16074;42.708;23.312;2023-06-24T03:52:10;23.83;;;21.43;;
787;SDS011;16074;42.708;23.312;2023-06-24T03:54:38;24.70;;;22.53;;
787;SDS011;16074;42.708;23.312;2023-06-24T03:57:07;24.80;;;22.30;;
787;SDS011;16074;42.708;23.312;2023-06-24T03:59:35;23.60;;;21.50;;
787;SDS011;16074;42.708;23.312;2023-06-24T04:02:04;24.33;;;22.03;;
787;SDS011;16074;42.708;23.312;2023-06-24T04:04:36;26.43;;;23.97;;
787;SDS011;16074;42.708;23.312;2023-06-24T04:07:05;23.93;;;21.73;;
787;SDS011;16074;42.708;23.312;2023-06-24T04:09:33;25.23;;;22.53;;
787;SDS011;16074;42.708;23.312;2023-06-24T04:12:02;25.77;;;23.33;;
787;SDS011;16074;42.708;23.312;2023-06-24T04:14:33;26.23;;;23.73;;
787;SDS011;16074;42.708;23.312;2023-06-24T04:17:01;24.20;;;22.10;;
787;SDS011;16074;42.708;23.312;2023-06-24T04:19:29;25.37;;;22.97;;
787;SDS011;16074;42.708;23.312;2023-06-24T04:22:01;24.20;;;21.83;;
787;SDS011;16074;42.708;23.312;2023-06-24T04:24:29;24.57;;;22.43;;
787;SDS011;16074;42.708;23.312;2023-06-24T04:26:57;26.90;;;24.00;;
787;SDS011;16074;42.708;23.312;2023-06-24T04:29:26;24.67;;;22.33;;
787;SDS011;16074;42.708;23.312;2023-06-24T04:31:54;24.03;;;21.90;;
787;SDS011;16074;42.708;23.312;2023-06-24T04:34:23;26.77;;;24.03;;
787;SDS011;16074;42.708;23.312;2023-06-24T04:36:51;28.10;;;25.40;;
787;SDS011;16074;42.708;23.312;2023-06-24T04:39:20;25.67;;;23.33;;
787;SDS011;16074;42.708;23.312;2023-06-24T04:41:48;27.53;;;24.70;;
787;SDS011;16074;42.708;23.312;2023-06-24T04:44:16;27.30;;;24.57;;
787;SDS011;16074;42.708;23.312;2023-06-24T04:46:46;26.23;;;23.80;;
787;SDS011;16074;42.708;23.312;2023-06-24T04:49:14;25.47;;;23.00;;
787;SDS011;16074;42.708;23.312;2023-06-24T04:51:43;26.47;;;23.80;;
787;SDS011;16074;42.708;23.312;2023-06-24T04:54:11;26.50;;;24.30;;
787;SDS011;16074;42.708;23.312;2023-06-24T04:56:41;25.40;;;23.20;;
787;SDS011;16074;42.708;23.312;2023-06-24T04:59:09;24.80;;;22.60;;
787;SDS011;16074;42.708;23.312;2023-06-24T05:01:38;26.53;;;23.73;;
787;SDS011;16074;42.708;23.312;2023-06-24T05:04:06;26.63;;;23.93;;
787;SDS011;16074;42.708;23.312;2023-06-24T05:06:35;26.60;;;23.90;;
787;SDS011;16074;42.708;23.312;2023-06-24T05:09:03;24.07;;;21.90;;
787;SDS011;16074;42.708;23.312;2023-06-24T05:11:31;23.90;;;21.80;;
787;SDS011;16074;42.708;23.312;2023-06-24T05:14:00;24.77;;;22.50;;
787;SDS011;16074;42.708;23.312;2023-06-24T05:16:29;29.07;;;26.03;;
787;SDS011;16074;42.708;23.312;2023-06-24T05:18:57;26.27;;;23.97;;
787;SDS011;16074;42.708;23.312;2023-06-24T05:21:26;25.90;;;23.20;;
787;SDS011;16074;42.708;23.312;2023-06-24T05:23:54;26.33;;;23.93;;
787;SDS011;16074;42.708;23.312;2023-06-24T05:26:22;25.87;;;23.23;;
787;SDS011;16074;42.708;23.312;2023-06-24T05:28:50;27.50;;;23.73;;
787;SDS011;16074;42.708;23.312;2023-06-24T05:31:20;24.47;;;22.07;;
787;SDS011;16074;42.708;23.312;2023-06-24T05:33:48;25.50;;;23.10;;
787;SDS011;16074;42.708;23.312;2023-06-24T05:36:16;24.27;;;22.27;;
787;SDS011;16074;42.708;23.312;2023-06-24T05:38:44;26.33;;;24.00;;
787;SDS011;16074;42.708;23.312;2023-06-24T05:41:15;26.37;;;23.37;;
787;SDS011;16074;42.708;23.312;2023-06-24T05:43:43;25.20;;;22.80;;
787;SDS011;16074;42.708;23.312;2023-06-24T05:46:11;24.67;;;22.53;;
787;SDS011;16074;42.708;23.312;2023-06-24T05:48:41;25.50;;;23.40;;
787;SDS011;16074;42.708;23.312;2023-06-24T05:51:09;24.50;;;22.13;;
787;SDS011;16074;42.708;23.312;2023-06-24T05:53:37;25.10;;;22.80;;
787;SDS011;16074;42.708;23.312;2023-06-24T05:56:05;25.23;;;22.83;;
787;SDS011;16074;42.708;23.312;2023-06-24T05:58:33;23.73;;;21.50;;
787;SDS011;16074;42.708;23.312;2023-06-24T06:01:01;24.80;;;22.47;;
787;SDS011;16074;42.708;23.312;2023-06-24T06:03:30;23.57;;;21.37;;
787;SDS011;16074;42.708;23.312;2023-06-24T06:06:00;24.87;;;22.63;;
787;SDS011;16074;42.708;23.312;2023-06-24T06:08:28;24.03;;;21.83;;
787;SDS011;16074;42.708;23.312;2023-06-24T06:10:56;24.27;;;22.07;;
787;SDS011;16074;42.708;23.312;2023-06-24T06:13:24;25.23;;;23.10;;
787;SDS011;16074;42.708;23.312;2023-06-24T06:15:52;24.00;;;21.70;;
787;SDS011;16074;42.708;23.312;2023-06-24T06:18:20;23.13;;;20.73;;
787;SDS011;16074;42.708;23.312;2023-06-24T06:20:48;23.00;;;20.90;;
787;SDS011;16074;42.708;23.312;2023-06-24T06:23:18;23.20;;;21.20;;
787;SDS011;16074;42.708;23.312;2023-06-24T06:25:46;23.57;;;21.47;;
787;SDS011;16074;42.708;23.312;2023-06-24T06:28:15;21.50;;;19.17;;
787;SDS011;16074;42.708;23.312;2023-06-24T06:30:43;21.10;;;19.10;;
787;SDS011;16074;42.708;23.312;2023-06-24T06:33:11;21.17;;;19.37;;
787;SDS011;16074;42.708;23.312;2023-06-24T06:35:39;21.83;;;19.73;;
787;SDS011;16074;42.708;23.312;2023-06-24T06:38:07;20.33;;;18.63;;
787;SDS011;16074;42.708;23.312;2023-06-24T06:40:36;20.43;;;18.63;;
787;SDS011;16074;42.708;23.312;2023-06-24T06:43:04;19.40;;;17.43;;
787;SDS011;16074;42.708;23.312;2023-06-24T06:45:33;19.50;;;17.83;;
787;SDS011;16074;42.708;23.312;2023-06-24T06:48:02;21.90;;;20.10;;
787;SDS011;16074;42.708;23.312;2023-06-24T06:50:33;20.40;;;18.60;;
787;SDS011;16074;42.708;23.312;2023-06-24T06:53:01;20.60;;;18.47;;
787;SDS011;16074;42.708;23.312;2023-06-24T06:55:29;18.80;;;17.30;;
787;SDS011;16074;42.708;23.312;2023-06-24T06:57:59;18.23;;;16.60;;
787;SDS011;16074;42.708;23.312;2023-06-24T07:00:27;18.67;;;17.07;;
787;SDS011;16074;42.708;23.312;2023-06-24T07:02:55;19.73;;;18.17;;
787;SDS011;16074;42.708;23.312;2023-06-24T07:05:23;18.67;;;17.27;;
787;SDS011;16074;42.708;23.312;2023-06-24T07:07:52;18.40;;;16.80;;
787;SDS011;16074;42.708;23.312;2023-06-24T07:10:20;19.60;;;17.83;;
787;SDS011;16074;42.708;23.312;2023-06-24T07:12:48;20.63;;;18.90;;
787;SDS011;16074;42.708;23.312;2023-06-24T07:15:19;18.20;;;16.67;;
787;SDS011;16074;42.708;23.312;2023-06-24T07:17:47;18.10;;;16.70;;
787;SDS011;16074;42.708;23.312;2023-06-24T07:20:15;19.07;;;17.23;;
787;SDS011;16074;42.708;23.312;2023-06-24T07:22:43;17.00;;;15.57;;
787;SDS011;16074;42.708;23.312;2023-06-24T07:25:11;18.93;;;17.17;;
787;SDS011;16074;42.708;23.312;2023-06-24T07:27:39;18.40;;;17.00;;
787;SDS011;16074;42.708;23.312;2023-06-24T07:30:08;19.30;;;17.40;;
787;SDS011;16074;42.708;23.312;2023-06-24T07:32:37;19.23;;;17.63;;
787;SDS011;16074;42.708;23.312;2023-06-24T07:35:06;19.63;;;18.03;;
787;SDS011;16074;42.708;23.312;2023-06-24T07:37:34;19.13;;;17.20;;
787;SDS011;16074;42.708;23.312;2023-06-24T07:40:02;18.53;;;16.90;;
787;SDS011;16074;42.708;23.312;2023-06-24T07:42:31;20.20;;;18.53;;
787;SDS011;16074;42.708;23.312;2023-06-24T07:44:59;18.63;;;17.13;;
787;SDS011;16074;42.708;23.312;2023-06-24T07:47:27;19.17;;;17.17;;
787;SDS011;16074;42.708;23.312;2023-06-24T07:49:57;18.97;;;17.37;;
787;SDS011;16074;42.708;23.312;2023-06-24T07:52:25;18.20;;;16.80;;
787;SDS011;16074;42.708;23.312;2023-06-24T07:54:53;18.13;;;16.83;;
787;SDS011;16074;42.708;23.312;2023-06-24T07:57:21;18.13;;;16.57;;
787;SDS011;16074;42.708;23.312;2023-06-24T07:59:49;18.90;;;17.40;;
787;SDS011;16074;42.708;23.312;2023-06-24T08:02:17;18.93;;;17.23;;
787;SDS011;16074;42.708;23.312;2023-06-24T08:04:45;18.77;;;17.27;;
787;SDS011;16074;42.708;23.312;2023-06-24T08:07:15;18.17;;;16.73;;
787;SDS011;16074;42.708;23.312;2023-06-24T08:09:43;18.77;;;17.33;;
787;SDS011;16074;42.708;23.312;2023-06-24T08:12:12;18.70;;;17.30;;
787;SDS011;16074;42.708;23.312;2023-06-24T08:14:40;19.00;;;17.57;;
787;SDS011;16074;42.708;23.312;2023-06-24T08:17:08;17.87;;;16.37;;
787;SDS011;16074;42.708;23.312;2023-06-24T08:19:36;18.10;;;16.70;;
787;SDS011;16074;42.708;23.312;2023-06-24T08:22:04;19.00;;;17.40;;
787;SDS011;16074;42.708;23.312;2023-06-24T08:24:33;19.70;;;18.10;;
787;SDS011;16074;42.708;23.312;2023-06-24T08:27:02;16.97;;;15.67;;
787;SDS011;16074;42.708;23.312;2023-06-24T08:29:30;19.10;;;17.20;;
787;SDS011;16074;42.708;23.312;2023-06-24T08:31:58;17.53;;;16.33;;
787;SDS011;16074;42.708;23.312;2023-06-24T08:34:26;19.93;;;17.40;;
787;SDS011;16074;42.708;23.312;2023-06-24T08:36:54;18.70;;;17.07;;
787;SDS011;16074;42.708;23.312;2023-06-24T08:39:22;19.73;;;18.33;;
787;SDS011;16074;42.708;23.312;2023-06-24T08:41:51;17.93;;;16.63;;
787;SDS011;16074;42.708;23.312;2023-06-24T08:44:19;17.87;;;16.50;;
787;SDS011;16074;42.708;23.312;2023-06-24T08:46:47;18.50;;;16.97;;
787;SDS011;16074;42.708;23.312;2023-06-24T08:49:17;19.87;;;18.27;;
787;SDS011;16074;42.708;23.312;2023-06-24T08:51:51;18.87;;;17.47;;
787;SDS011;16074;42.708;23.312;2023-06-24T08:54:22;18.07;;;16.77;;
787;SDS011;16074;42.708;23.312;2023-06-24T08:56:52;19.27;;;17.70;;
787;SDS011;16074;42.708;23.312;2023-06-24T08:59:20;18.20;;;16.90;;
787;SDS011;16074;42.708;23.312;2023-06-24T09:01:49;18.10;;;16.67;;
787;SDS011;16074;42.708;23.312;2023-06-24T09:04:18;18.50;;;16.67;;
787;SDS011;16074;42.708;23.312;2023-06-24T09:06:46;17.43;;;16.13;;
787;SDS011;16074;42.708;23.312;2023-06-24T09:09:17;17.60;;;16.30;;
787;SDS011;16074;42.708;23.312;2023-06-24T09:11:56;18.57;;;16.97;;
787;SDS011;16074;42.708;23.312;2023-06-24T09:14:25;18.50;;;17.00;;
787;SDS011;16074;42.708;23.312;2023-06-24T09:16:54;17.57;;;16.27;;
787;SDS011;16074;42.708;23.312;2023-06-24T09:19:22;19.10;;;17.50;;
787;SDS011;16074;42.708;23.312;2023-06-24T09:21:50;16.50;;;15.40;;
787;SDS011;16074;42.708;23.312;2023-06-24T09:24:19;17.23;;;16.03;;
787;SDS011;16074;42.708;23.312;2023-06-24T09:26:47;17.17;;;16.00;;
787;SDS011;16074;42.708;23.312;2023-06-24T09:29:17;18.07;;;16.70;;
787;SDS011;16074;42.708;23.312;2023-06-24T09:31:48;18.70;;;17.30;;
787;SDS011;16074;42.708;23.312;2023-06-24T09:34:19;16.77;;;15.53;;
787;SDS011;16074;42.708;23.312;2023-06-24T09:36:50;16.60;;;15.13;;
787;SDS011;16074;42.708;23.312;2023-06-24T09:39:19;16.07;;;14.63;;
787;SDS011;16074;42.708;23.312;2023-06-24T09:41:55;16.40;;;15.13;;
787;SDS011;16074;42.708;23.312;2023-06-24T09:44:25;16.33;;;15.23;;
787;SDS011;16074;42.708;23.312;2023-06-24T09:46:54;17.60;;;16.20;;
787;SDS011;16074;42.708;23.312;2023-06-24T09:49:22;15.43;;;14.43;;
787;SDS011;16074;42.708;23.312;2023-06-24T09:51:54;16.67;;;15.40;;
787;SDS011;16074;42.708;23.312;2023-06-24T09:54:24;17.30;;;15.90;;
787;SDS011;16074;42.708;23.312;2023-06-24T09:56:56;17.73;;;16.47;;
787;SDS011;16074;42.708;23.312;2023-06-24T09:59:28;17.50;;;16.10;;
787;SDS011;16074;42.708;23.312;2023-06-24T10:02:00;17.90;;;16.30;;
787;SDS011;16074;42.708;23.312;2023-06-24T10:04:30;17.10;;;15.80;;
787;SDS011;16074;42.708;23.312;2023-06-24T10:06:59;16.60;;;15.40;;
787;SDS011;16074;42.708;23.312;2023-06-24T10:09:29;15.67;;;14.47;;
787;SDS011;16074;42.708;23.312;2023-06-24T10:11:57;15.40;;;14.30;;
787;SDS011;16074;42.708;23.312;2023-06-24T10:14:28;15.63;;;14.33;;
787;SDS011;16074;42.708;23.312;2023-06-24T10:17:00;15.40;;;14.30;;
787;SDS011;16074;42.708;23.312;2023-06-24T10:19:29;15.57;;;14.37;;
787;SDS011;16074;42.708;23.312;2023-06-24T10:21:57;16.17;;;14.97;;
787;SDS011;16074;42.708;23.312;2023-06-24T10:24:29;15.90;;;14.80;;
787;SDS011;16074;42.708;23.312;2023-06-24T10:27:04;16.17;;;15.07;;
787;SDS011;16074;42.708;23.312;2023-06-24T10:29:37;17.70;;;16.40;;
787;SDS011;16074;42.708;23.312;2023-06-24T10:32:06;16.53;;;15.43;;
787;SDS011;16074;42.708;23.312;2023-06-24T10:34:39;15.63;;;14.43;;
787;SDS011;16074;42.708;23.312;2023-06-24T10:37:11;13.90;;;12.90;;
787;SDS011;16074;42.708;23.312;2023-06-24T10:39:40;15.00;;;13.57;;
787;SDS011;16074;42.708;23.312;2023-06-24T10:42:27;14.50;;;13.60;;
787;SDS011;16074;42.708;23.312;2023-06-24T10:44:57;15.10;;;14.10;;
787;SDS011;16074;42.708;23.312;2023-06-24T10:47:27;15.07;;;14.07;;
787;SDS011;16074;42.708;23.312;2023-06-24T10:49:55;15.73;;;14.53;;
787;SDS011;16074;42.708;23.312;2023-06-24T10:52:23;15.57;;;14.33;;
787;SDS011;16074;42.708;23.312;2023-06-24T10:54:52;14.17;;;13.17;;
787;SDS011;16074;42.708;23.312;2023-06-24T10:57:21;16.30;;;15.00;;
787;SDS011;16074;42.708;23.312;2023-06-24T10:59:49;15.27;;;14.17;;
787;SDS011;16074;42.708;23.312;2023-06-24T11:02:19;13.80;;;12.93;;
787;SDS011;16074;42.708;23.312;2023-06-24T11:04:48;13.30;;;12.37;;
787;SDS011;16074;42.708;23.312;2023-06-24T11:07:17;13.27;;;12.40;;
787;SDS011;16074;42.708;23.312;2023-06-24T11:09:49;13.20;;;12.33;;
787;SDS011;16074;42.708;23.312;2023-06-24T11:12:18;13.27;;;12.07;;
787;SDS011;16074;42.708;23.312;2023-06-24T11:14:46;13.83;;;12.93;;
787;SDS011;16074;42.708;23.312;2023-06-24T11:17:14;14.60;;;13.50;;
787;SDS011;16074;42.708;23.312;2023-06-24T11:19:44;14.80;;;13.53;;
787;SDS011;16074;42.708;23.312;2023-06-24T11:22:13;12.73;;;11.60;;
787;SDS011;16074;42.708;23.312;2023-06-24T11:24:41;12.07;;;11.27;;
787;SDS011;16074;42.708;23.312;2023-06-24T11:27:09;12.37;;;11.47;;
787;SDS011;16074;42.708;23.312;2023-06-24T11:29:37;11.80;;;11.00;;
787;SDS011;16074;42.708;23.312;2023-06-24T11:32:07;12.60;;;11.50;;
787;SDS011;16074;42.708;23.312;2023-06-24T11:34:35;12.27;;;11.37;;
787;SDS011;16074;42.708;23.312;2023-06-24T11:37:12;10.93;;;10.03;;
787;SDS011;16074;42.708;23.312;2023-06-24T11:39:41;11.93;;;11.03;;
787;SDS011;16074;42.708;23.312;2023-06-24T11:42:09;10.33;;;9.73;;
787;SDS011;16074;42.708;23.312;2023-06-24T11:44:40;11.00;;;10.20;;
787;SDS011;16074;42.708;23.312;2023-06-24T11:47:09;10.13;;;9.33;;
787;SDS011;16074;42.708;23.312;2023-06-24T11:49:47;10.20;;;9.50;;
787;SDS011;16074;42.708;23.312;2023-06-24T11:52:17;10.50;;;9.80;;
787;SDS011;16074;42.708;23.312;2023-06-24T11:54:45;10.50;;;9.90;;
787;SDS011;16074;42.708;23.312;2023-06-24T11:57:13;11.70;;;10.57;;
787;SDS011;16074;42.708;23.312;2023-06-24T11:59:42;10.90;;;10.20;;
787;SDS011;16074;42.708;23.312;2023-06-24T12:02:13;10.33;;;9.53;;
787;SDS011;16074;42.708;23.312;2023-06-24T12:04:43;10.47;;;9.77;;
787;SDS011;16074;42.708;23.312;2023-06-24T12:07:11;9.80;;;8.90;;
787;SDS011;16074;42.708;23.312;2023-06-24T12:09:41;10.93;;;10.23;;
787;SDS011;16074;42.708;23.312;2023-06-24T12:12:10;11.57;;;10.80;;
787;SDS011;16074;42.708;23.312;2023-06-24T12:14:38;10.60;;;9.90;;
787;SDS011;16074;42.708;23.312;2023-06-24T12:17:06;10.13;;;9.53;;
787;SDS011;16074;42.708;23.312;2023-06-24T12:19:35;10.77;;;9.77;;
787;SDS011;16074;42.708;23.312;2023-06-24T12:22:03;11.07;;;10.30;;
787;SDS011;16074;42.708;23.312;2023-06-24T12:24:31;10.80;;;10.10;;
787;SDS011;16074;42.708;23.312;2023-06-24T12:27:01;11.40;;;10.70;;
787;SDS011;16074;42.708;23.312;2023-06-24T12:29:29;12.17;;;11.37;;
787;SDS011;16074;42.708;23.312;2023-06-24T12:31:57;12.37;;;11.53;;
787;SDS011;16074;42.708;23.312;2023-06-24T12:34:26;12.93;;;11.93;;
787;SDS011;16074;42.708;23.312;2023-06-24T12:36:54;11.87;;;11.07;;
787;SDS011;16074;42.708;23.312;2023-06-24T12:39:22;12.57;;;11.77;;
787;SDS011;16074;42.708;23.312;2023-06-24T12:41:50;13.13;;;12.00;;
787;SDS011;16074;42.708;23.312;2023-06-24T12:44:19;13.10;;;12.10;;
787;SDS011;16074;42.708;23.312;2023-06-24T12:46:47;12.57;;;11.57;;
787;SDS011;16074;42.708;23.312;2023-06-24T12:49:15;14.03;;;12.73;;
787;SDS011;16074;42.708;23.312;2023-06-24T12:51:43;13.03;;;12.13;;
787;SDS011;16074;42.708;23.312;2023-06-24T12:54:12;13.77;;;12.67;;
787;SDS011;16074;42.708;23.312;2023-06-24T12:56:40;14.57;;;13.37;;
787;SDS011;16074;42.708;23.312;2023-06-24T12:59:08;13.07;;;12.00;;
787;SDS011;16074;42.708;23.312;2023-06-24T13:01:38;12.63;;;11.73;;
787;SDS011;16074;42.708;23.312;2023-06-24T13:04:06;12.23;;;11.47;;
787;SDS011;16074;42.708;23.312;2023-06-24T13:06:34;12.93;;;11.90;;
787;SDS011;16074;42.708;23.312;2023-06-24T13:09:02;12.83;;;11.67;;
787;SDS011;16074;42.708;23.312;2023-06-24T13:11:30;13.47;;;12.20;;
787;SDS011;16074;42.708;23.312;2023-06-24T13:13:58;12.40;;;11.50;;
787;SDS011;16074;42.708;23.312;2023-06-24T13:16:27;14.33;;;13.13;;
787;SDS011;16074;42.708;23.312;2023-06-24T13:18:56;16.23;;;14.83;;
787;SDS011;16074;42.708;23.312;2023-06-24T13:21:24;15.67;;;14.23;;
787;SDS011;16074;42.708;23.312;2023-06-24T13:23:52;16.20;;;14.67;;
787;SDS011;16074;42.708;23.312;2023-06-24T13:26:20;15.27;;;13.77;;
787;SDS011;16074;42.708;23.312;2023-06-24T13:28:49;14.30;;;13.17;;
787;SDS011;16074;42.708;23.312;2023-06-24T13:31:17;16.63;;;12.87;;
787;SDS011;16074;42.708;23.312;2023-06-24T13:33:45;15.37;;;11.90;;
787;SDS011;16074;42.708;23.312;2023-06-24T13:36:25;18.40;;;11.20;;
787;SDS011;16074;42.708;23.312;2023-06-24T13:38:55;29.53;;;10.90;;
787;SDS011;16074;42.708;23.312;2023-06-24T13:41:23;14.10;;;9.20;;
787;SDS011;16074;42.708;23.312;2023-06-24T13:43:52;22.63;;;11.67;;
787;SDS011;16074;42.708;23.312;2023-06-24T13:46:21;23.83;;;12.70;;
787;SDS011;16074;42.708;23.312;2023-06-24T13:48:49;19.70;;;12.30;;
787;SDS011;16074;42.708;23.312;2023-06-24T13:51:19;29.30;;;12.03;;
787;SDS011;16074;42.708;23.312;2023-06-24T13:53:47;19.73;;;10.83;;
787;SDS011;16074;42.708;23.312;2023-06-24T13:56:15;14.77;;;9.00;;
787;SDS011;16074;42.708;23.312;2023-06-24T13:58:44;8.37;;;7.47;;
787;SDS011;16074;42.708;23.312;2023-06-24T14:01:12;12.10;;;8.73;;
787;SDS011;16074;42.708;23.312;2023-06-24T14:03:40;11.60;;;10.60;;
787;SDS011;16074;42.708;23.312;2023-06-24T14:06:08;11.40;;;10.30;;
787;SDS011;16074;42.708;23.312;2023-06-24T14:08:38;9.00;;;7.80;;
787;SDS011;16074;42.708;23.312;2023-06-24T14:11:06;11.00;;;9.63;;
787;SDS011;16074;42.708;23.312;2023-06-24T14:13:34;12.33;;;8.50;;
787;SDS011;16074;42.708;23.312;2023-06-24T14:16:03;10.63;;;8.97;;
787;SDS011;16074;42.708;23.312;2023-06-24T14:18:32;10.20;;;9.23;;
787;SDS011;16074;42.708;23.312;2023-06-24T14:21:02;11.13;;;8.73;;
787;SDS011;16074;42.708;23.312;2023-06-24T14:23:31;15.47;;;10.90;;
787;SDS011;16074;42.708;23.312;2023-06-24T14:26:00;13.10;;;10.90;;
787;SDS011;16074;42.708;23.312;2023-06-24T14:28:29;10.57;;;8.53;;
787;SDS011;16074;42.708;23.312;2023-06-24T14:30:57;9.93;;;8.80;;
787;SDS011;16074;42.708;23.312;2023-06-24T14:33:25;11.73;;;8.97;;
787;SDS011;16074;42.708;23.312;2023-06-24T14:35:53;10.83;;;8.97;;
787;SDS011;16074;42.708;23.312;2023-06-24T14:38:21;9.50;;;8.50;;
787;SDS011;16074;42.708;23.312;2023-06-24T14:40:50;10.20;;;8.30;;
787;SDS011;16074;42.708;23.312;2023-06-24T14:43:19;11.10;;;9.27;;
787;SDS011;16074;42.708;23.312;2023-06-24T14:45:47;13.23;;;8.40;;
787;SDS011;16074;42.708;23.312;2023-06-24T14:48:16;10.30;;;9.17;;
787;SDS011;16074;42.708;23.312;2023-06-24T14:50:44;17.03;;;10.50;;